createdAt,value
2022-12-08T00:00:43.495Z,98.1
2022-12-08T00:05:43.478Z,98.1
2022-12-08T00:10:50.784Z,97.9
2022-12-08T00:15:43.525Z,97.9
2022-12-08T00:25:43.477Z,98.2
2022-12-08T00:30:43.496Z,98.5
2022-12-08T00:45:43.549Z,98.8
2022-12-08T00:55:43.456Z,98.8
2022-12-08T01:20:43.451Z,99.2
2022-12-08T01:25:43.448Z,99.5
2022-12-08T01:30:43.519Z,99.8
2022-12-08T01:35:43.445Z,99.6
2022-12-08T01:40:43.448Z,99.6
2022-12-08T01:45:43.516Z,99.3
2022-12-08T01:50:43.452Z,99.2
2022-12-08T01:55:43.443Z,99
2022-12-08T02:00:43.466Z,99.3
2022-12-08T02:05:43.432Z,99.5
2022-12-08T02:10:43.451Z,99.4
2022-12-08T02:15:43.486Z,99.2
2022-12-08T02:20:43.449Z,99.4
2022-12-08T02:25:43.443Z,99.1
2022-12-08T02:30:43.509Z,99.2
2022-12-08T02:35:43.443Z,99.4
2022-12-08T02:40:43.435Z,99.8
2022-12-08T02:45:43.428Z,99.8
2022-12-08T02:50:43.425Z,99.9
2022-12-08T02:55:43.450Z,99.7
2022-12-08T03:00:43.426Z,99.7
2022-12-08T03:05:43.431Z,99.8
2022-12-08T03:10:43.438Z,100
2022-12-08T03:15:43.464Z,99.8
2022-12-08T03:20:43.448Z,100
2022-12-08T03:25:43.425Z,99.9
2022-12-08T03:30:43.457Z,99.5
2022-12-08T03:35:43.427Z,99.6
2022-12-08T03:40:43.437Z,99.6
2022-12-08T03:45:43.861Z,99.7
2022-12-08T03:50:43.430Z,100
2022-12-08T03:55:43.420Z,100
2022-12-08T04:00:43.404Z,100
2022-12-08T04:05:43.421Z,100
2022-12-08T04:10:43.401Z,100
2022-12-08T04:15:43.463Z,100
2022-12-08T04:20:43.399Z,100
2022-12-08T04:25:43.407Z,100
2022-12-08T04:30:43.410Z,99.8
2022-12-08T04:35:43.413Z,99.8
2022-12-08T04:40:43.418Z,100
2022-12-08T04:45:43.399Z,99.7
2022-12-08T04:50:43.394Z,99.7
2022-12-08T04:55:43.381Z,99.7
2022-12-08T05:00:43.389Z,99.7
2022-12-08T05:05:43.401Z,99.7
2022-12-08T05:10:43.388Z,99.8
2022-12-08T05:15:43.492Z,99.5
2022-12-08T05:20:43.390Z,99.7
2022-12-08T05:25:43.383Z,99.5
2022-12-08T05:30:43.408Z,99.7
2022-12-08T05:35:43.407Z,99.7
2022-12-08T05:40:43.382Z,100
2022-12-08T05:45:43.437Z,100
2022-12-08T05:50:43.384Z,99.9
2022-12-08T05:55:43.406Z,99.3
2022-12-08T06:05:43.505Z,98.7
2022-12-08T06:10:43.366Z,98.7
2022-12-08T06:15:43.364Z,98.6
2022-12-08T06:20:43.365Z,98.5
2022-12-08T06:25:43.352Z,98.6
2022-12-08T06:30:43.365Z,98.7
2022-12-08T06:35:43.371Z,98.5
2022-12-08T06:40:43.362Z,98.5
2022-12-08T06:45:43.369Z,98.8
2022-12-08T06:50:43.352Z,98.7
2022-12-08T06:55:58.642Z,98.8
2022-12-08T07:00:43.590Z,98.9
2022-12-08T07:05:43.348Z,99
2022-12-08T07:10:43.340Z,99.2
2022-12-08T07:15:43.337Z,99.4
2022-12-08T07:20:43.353Z,99.7
2022-12-08T07:25:43.330Z,100
2022-12-08T07:30:43.610Z,100
2022-12-08T07:35:48.969Z,100
2022-12-08T07:40:43.329Z,100
2022-12-08T07:45:43.370Z,99.9
2022-12-08T07:50:43.340Z,99.6
2022-12-08T07:55:43.367Z,99.6
2022-12-08T08:00:43.413Z,99.4
2022-12-08T08:05:43.345Z,99.4
2022-12-08T08:10:43.326Z,99
2022-12-08T08:15:43.436Z,98.7
2022-12-08T08:20:43.335Z,98.4
2022-12-08T08:25:43.331Z,97.8
2022-12-08T08:30:43.345Z,97.7
2022-12-08T08:35:43.347Z,97.1
2022-12-08T08:40:43.330Z,96.5
2022-12-08T08:45:43.313Z,95.7
2022-12-08T08:50:43.310Z,94.6
2022-12-08T08:55:43.321Z,94
2022-12-08T09:00:43.308Z,93.5
2022-12-08T09:05:43.323Z,92.4
2022-12-08T09:10:43.306Z,91.8
2022-12-08T09:15:43.346Z,91.5
2022-12-08T09:20:43.301Z,91
2022-12-08T09:25:43.302Z,90.4
2022-12-08T09:30:43.293Z,90.2
2022-12-08T09:35:43.300Z,89.9
2022-12-08T09:40:43.289Z,89.4
2022-12-08T09:45:43.289Z,89.2
2022-12-08T09:50:43.287Z,88.2
2022-12-08T09:55:43.282Z,87.7
2022-12-08T10:00:43.342Z,87.8
2022-12-08T10:05:43.281Z,86.5
2022-12-08T10:10:43.337Z,85.9
2022-12-08T10:15:43.363Z,85
2022-12-08T10:20:43.275Z,83.5
2022-12-08T10:25:43.271Z,83.7
2022-12-08T10:30:43.278Z,84
2022-12-08T10:35:43.283Z,83.1
2022-12-08T10:40:45.683Z,80.7
2022-12-08T10:45:43.266Z,81.5
2022-12-08T10:50:43.255Z,82
2022-12-08T10:55:43.243Z,81.4
2022-12-08T11:00:43.387Z,81.7
2022-12-08T11:05:43.277Z,80.4
2022-12-08T11:10:43.249Z,80.1
2022-12-08T11:15:43.234Z,78.5
2022-12-08T11:20:43.236Z,77.1
2022-12-08T11:25:43.224Z,77.3
2022-12-08T11:30:43.219Z,76.4
2022-12-08T11:35:43.237Z,76.4
2022-12-08T11:40:43.241Z,75.9
2022-12-08T11:45:43.269Z,76.6
2022-12-08T11:50:43.219Z,75.9
2022-12-08T11:55:46.670Z,77.2
2022-12-08T12:00:43.203Z,76.7
2022-12-08T12:10:43.193Z,78.9
2022-12-08T12:15:43.201Z,78.8
2022-12-08T12:20:43.207Z,77.9
2022-12-08T12:25:43.182Z,76.4
2022-12-08T12:30:43.216Z,74.8
2022-12-08T12:35:43.195Z,73.3
2022-12-08T12:40:43.192Z,73.8
2022-12-08T12:45:43.215Z,74.1
2022-12-08T12:50:43.163Z,72.2
2022-12-08T12:55:43.189Z,69.6
2022-12-08T13:00:43.167Z,68.1
2022-12-08T13:05:43.169Z,67.9
2022-12-08T13:10:43.141Z,70.3
2022-12-08T13:15:43.149Z,81.9
2022-12-08T13:20:43.157Z,77
2022-12-08T13:25:43.141Z,71.7
2022-12-08T13:30:43.256Z,66.6
2022-12-08T13:35:43.147Z,67.1
2022-12-08T13:40:43.132Z,69.4
2022-12-08T13:50:55.597Z,71.8
2022-12-08T14:00:43.133Z,72.5
2022-12-08T14:06:10.837Z,72.6
2022-12-08T14:10:43.100Z,74.2
2022-12-08T14:15:43.154Z,75.7
2022-12-08T14:21:12.468Z,75.4
2022-12-08T14:25:43.099Z,75.6
2022-12-08T14:30:43.139Z,76.9
2022-12-08T14:35:43.087Z,78.2
2022-12-08T14:40:43.093Z,79.8
2022-12-08T14:45:43.092Z,80.4
2022-12-08T14:50:43.081Z,81.6
2022-12-08T14:55:43.069Z,83.5
2022-12-08T15:00:43.071Z,85.2
2022-12-08T15:05:43.109Z,86.1
2022-12-08T15:20:43.073Z,87.9
2022-12-08T15:25:43.069Z,88.4
2022-12-08T15:30:43.059Z,89.3
2022-12-08T15:35:43.061Z,90.2
2022-12-08T15:40:43.047Z,91.3
2022-12-08T15:45:54.990Z,91.8
2022-12-08T15:50:43.050Z,93.4
2022-12-08T16:00:52.173Z,95
2022-12-08T16:05:55.246Z,95.3
2022-12-08T16:15:58.922Z,96.5
2022-12-08T16:26:16.055Z,97.1
2022-12-08T16:30:43.043Z,97.6
2022-12-08T16:35:43.030Z,98.1
2022-12-08T16:40:43.037Z,98.2
2022-12-08T16:45:44.881Z,98.8
2022-12-08T16:50:43.038Z,99.3
2022-12-08T16:55:43.042Z,99.6
2022-12-08T17:00:43.083Z,99.8
2022-12-08T17:05:43.060Z,100
2022-12-08T17:10:43.031Z,100
2022-12-08T17:15:43.023Z,100
2022-12-08T17:20:43.033Z,100
2022-12-08T17:25:43.015Z,100
2022-12-08T17:30:43.014Z,100
2022-12-08T17:35:43.037Z,100
2022-12-08T17:40:43.025Z,100
2022-12-08T17:45:43.087Z,100
2022-12-08T17:50:43.032Z,100
2022-12-08T17:55:43.036Z,100
2022-12-08T18:00:43.013Z,100
2022-12-08T18:05:43.052Z,100
2022-12-08T18:10:43.042Z,100
2022-12-08T18:15:43.151Z,100
2022-12-08T18:20:43.039Z,100
2022-12-08T18:25:43.025Z,100
2022-12-08T18:30:43.059Z,100
2022-12-08T18:35:43.017Z,100
2022-12-08T18:40:43.044Z,100
2022-12-08T18:45:43.032Z,100
2022-12-08T18:50:43.013Z,100
2022-12-08T18:55:42.995Z,100
2022-12-08T19:00:42.999Z,100
2022-12-08T19:05:42.998Z,100
2022-12-08T19:10:43.015Z,100
2022-12-08T19:15:43.059Z,100
2022-12-08T19:20:43.006Z,100
2022-12-08T19:25:42.998Z,100
2022-12-08T19:30:43.070Z,100
2022-12-08T19:35:46.243Z,100
2022-12-08T19:40:43.004Z,100
2022-12-08T19:45:43.053Z,100
2022-12-08T19:50:43.009Z,100
2022-12-08T19:55:43.018Z,100
2022-12-08T20:00:43.012Z,100
2022-12-08T20:05:43.020Z,100
2022-12-08T20:10:43.014Z,100
2022-12-08T20:15:43.137Z,100
2022-12-08T20:20:43.005Z,100
2022-12-08T20:25:43.019Z,100
2022-12-08T20:30:43.003Z,100
2022-12-08T20:35:42.985Z,100
2022-12-08T20:40:43.009Z,100
2022-12-08T20:45:42.996Z,100
2022-12-08T20:50:43.165Z,100
2022-12-08T20:55:43.055Z,100
2022-12-08T21:00:43.112Z,100
2022-12-08T21:05:43.120Z,100
2022-12-08T21:10:44.052Z,100
2022-12-08T21:15:43.069Z,100
2022-12-08T21:20:43.094Z,100
2022-12-08T21:25:43.024Z,100
2022-12-08T21:30:43.128Z,100
2022-12-08T21:35:43.133Z,100
2022-12-08T21:40:43.066Z,100
2022-12-08T21:45:43.013Z,100
2022-12-08T21:50:43.036Z,100
2022-12-08T21:55:43.153Z,100
2022-12-08T22:00:43.287Z,100
2022-12-08T22:05:43.136Z,100
2022-12-08T22:10:43.039Z,100
2022-12-08T22:15:43.034Z,100
2022-12-08T22:20:44.366Z,100
2022-12-08T22:25:43.294Z,100
2022-12-08T22:30:43.179Z,100
2022-12-08T22:35:43.077Z,100
2022-12-08T22:40:43.098Z,100
2022-12-08T22:45:43.349Z,100
2022-12-08T22:50:43.086Z,100
2022-12-08T22:55:43.273Z,100
2022-12-08T23:00:43.013Z,100
2022-12-08T23:05:43.098Z,100
2022-12-08T23:10:43.001Z,100
2022-12-08T23:15:43.059Z,100
2022-12-08T23:20:42.997Z,100
2022-12-08T23:25:43.108Z,100
2022-12-08T23:30:43.105Z,100
2022-12-08T23:35:42.992Z,100
2022-12-08T23:40:43.218Z,100
2022-12-08T23:45:43.076Z,100
2022-12-08T23:50:42.988Z,100
2022-12-08T23:55:43.005Z,100
